Time;durP1;ratioP1;P1;durP2;ratioP2;P2;SDS_P1;SDS_P2;PMS_P1;PMS_P2;Temp;Humidity;BMP_temperature;BMP_pressure;BME280_temperature;BME280_humidity;BME280_pressure;Samples;Min_cycle;Max_cycle;Signal;HPM_P1;HPM_P2
2023/01/22 00:00:16;;;;;;;55.28;18.87;;;;;;;3.09;100.00;101458.52;1795675;80;21084;-62
2023/01/22 00:02:47;;;;;;;51.65;18.52;;;;;;;3.11;100.00;101457.41;1795673;80;21514;-62
2023/01/22 00:05:17;;;;;;;50.23;18.05;;;;;;;3.13;100.00;101458.14;1795525;80;21111;-63
2023/01/22 00:07:49;;;;;;;49.38;17.87;;;;;;;3.13;100.00;101458.14;1795939;79;21102;-63
2023/01/22 00:10:18;;;;;;;47.03;18.12;;;;;;;3.12;100.00;101458.27;1795430;80;21107;-63
2023/01/22 00:12:49;;;;;;;48.13;18.65;;;;;;;3.09;100.00;101459.38;1795484;79;21593;-63
2023/01/22 00:15:20;;;;;;;48.33;18.73;;;;;;;3.07;100.00;101457.28;1795544;80;21120;-62
2023/01/22 00:17:52;;;;;;;49.05;17.85;;;;;;;3.10;100.00;101465.66;1795369;80;21582;-63
2023/01/22 00:20:21;;;;;;;45.65;17.35;;;;;;;3.11;100.00;101466.02;1795486;79;21366;-62
2023/01/22 00:22:50;;;;;;;44.48;17.48;;;;;;;3.12;100.00;101477.22;1795425;79;21084;-61
2023/01/22 00:25:22;;;;;;;46.05;17.25;;;;;;;3.14;100.00;101477.47;1795518;80;21155;-62
2023/01/22 00:27:52;;;;;;;45.85;18.25;;;;;;;3.14;100.00;101479.31;1795445;80;21547;-62
2023/01/22 00:30:21;;;;;;;46.18;16.97;;;;;;;3.16;100.00;101482.76;1795553;79;21147;-61
2023/01/22 00:32:52;;;;;;;47.55;17.30;;;;;;;3.17;100.00;101485.34;1795750;80;21130;-62
2023/01/22 00:35:23;;;;;;;47.03;17.92;;;;;;;3.16;100.00;101486.33;1795429;80;21633;-62
2023/01/22 00:37:55;;;;;;;48.65;18.25;;;;;;;3.16;100.00;101486.33;1803145;79;21103;-63
2023/01/22 00:40:24;;;;;;;47.08;17.50;;;;;;;3.21;100.00;101491.87;1803109;79;21743;-62
2023/01/22 00:42:53;;;;;;;52.75;18.77;;;;;;;3.17;100.00;101488.55;1803128;79;21606;-62
2023/01/22 00:45:23;;;;;;;44.38;17.85;;;;;;;3.16;100.00;101486.83;1803130;79;21186;-62
2023/01/22 00:47:52;;;;;;;46.75;17.55;;;;;;;3.14;100.00;101492.86;1803102;79;21406;-63
2023/01/22 00:50:21;;;;;;;45.48;17.82;;;;;;;3.12;100.00;101496.17;1803224;79;21119;-62
2023/01/22 00:52:50;;;;;;;53.02;19.80;;;;;;;3.12;100.00;101499.75;1803306;79;21115;-62
2023/01/22 00:55:20;;;;;;;48.28;17.62;;;;;;;3.14;100.00;101503.69;1803121;79;21110;-62
2023/01/22 00:57:49;;;;;;;42.40;17.75;;;;;;;3.17;100.00;101503.44;1803058;79;21115;-62
2023/01/22 01:00:19;;;;;;;48.52;17.90;;;;;;;3.21;100.00;101508.98;1803123;79;21598;-62
2023/01/22 04:50:34;;;;;;;21.70;10.65;;;;;;;3.46;100.00;101671.31;1848421;77;22547;-66
2023/01/22 04:53:05;;;;;;;23.73;10.80;;;;;;;3.45;100.00;101679.08;1754086;82;21118;-65
2023/01/22 04:55:34;;;;;;;21.82;9.98;;;;;;;3.47;100.00;101676.25;1784981;80;21111;-67
2023/01/22 04:58:06;;;;;;;24.07;9.95;;;;;;;3.49;100.00;101683.77;1753939;82;21123;-66
2023/01/22 05:00:36;;;;;;;22.25;10.63;;;;;;;3.49;100.00;101689.18;1754264;82;21094;-66
2023/01/22 05:03:06;;;;;;;24.15;11.05;;;;;;;3.47;100.00;101690.66;1785095;80;21150;-66
2023/01/22 05:05:35;;;;;;;23.07;10.60;;;;;;;3.49;100.00;101686.47;1754201;82;21169;-66
2023/01/22 05:08:04;;;;;;;25.97;11.33;;;;;;;3.49;100.00;101685.98;1754052;82;21569;-67
2023/01/22 05:10:35;;;;;;;24.20;10.75;;;;;;;3.50;100.00;101686.84;1754221;82;21161;-65
2023/01/22 05:13:06;;;;;;;24.57;10.75;;;;;;;3.50;100.00;101691.77;1725690;82;21111;-66
2023/01/22 05:15:36;;;;;;;24.92;10.53;;;;;;;3.50;100.00;101686.84;1754062;82;21550;-66
2023/01/22 05:18:09;;;;;;;24.27;10.70;;;;;;;3.51;100.00;101691.28;1754042;82;21121;-66
2023/01/22 05:20:39;;;;;;;24.37;11.15;;;;;;;3.52;100.00;101688.08;1754312;82;21170;-65
2023/01/22 05:23:09;;;;;;;22.02;10.82;;;;;;;3.54;100.00;101694.23;1724825;82;21118;-66
2023/01/22 05:25:38;;;;;;;23.80;10.88;;;;;;;3.53;100.00;101697.93;1754074;82;21137;-66
2023/01/22 05:28:07;;;;;;;22.67;10.78;;;;;;;3.53;100.00;101706.92;1754181;82;21158;-67
2023/01/22 05:30:41;;;;;;;25.65;11.75;;;;;;;3.52;100.00;101699.78;1751296;82;21126;-65
2023/01/22 05:33:29;;;;;;;24.20;11.12;;;;;;;3.52;100.00;101707.91;1652404;86;21195;-66
2023/01/22 05:36:00;;;;;;;24.35;11.43;;;;;;;3.52;100.00;101719.23;1740710;81;21138;-65
2023/01/22 05:38:30;;;;;;;19.10;9.80;;;;;;;3.51;100.00;101714.31;1768783;81;21150;-66
2023/01/22 05:41:00;;;;;;;22.48;10.48;;;;;;;3.50;100.00;101713.94;1754233;82;21111;-67
2023/01/22 05:43:32;;;;;;;20.05;10.20;;;;;;;3.47;100.00;101716.39;1754214;82;21461;-65
2023/01/22 05:46:03;;;;;;;21.75;9.68;;;;;;;3.45;100.00;101722.42;1772178;81;21630;-65
2023/01/22 05:48:51;;;;;;;22.37;10.20;;;;;;;3.43;100.00;101720.33;1752902;82;21175;-66
2023/01/22 05:51:26;;;;;;;19.95;9.70;;;;;;;3.42;100.00;101725.37;1815564;79;21091;-65
2023/01/22 05:53:55;;;;;;;22.67;10.18;;;;;;;3.42;100.00;101726.73;1815344;79;21099;-69
2023/01/22 05:56:26;;;;;;;21.62;9.65;;;;;;;3.43;100.00;101727.10;1815182;79;21083;-66
2023/01/22 05:58:56;;;;;;;22.90;10.48;;;;;;;3.43;100.00;101733.88;1776967;81;21087;-65
2023/01/22 06:01:26;;;;;;;23.73;10.88;;;;;;;3.44;100.00;101745.58;1815012;79;21082;-66
2023/01/22 06:03:55;;;;;;;21.95;10.03;;;;;;;3.46;100.00;101736.34;1814982;79;21150;-66
2023/01/22 06:06:26;;;;;;;25.85;10.48;;;;;;;3.46;100.00;101751.25;1814856;79;21203;-66
2023/01/22 06:08:56;;;;;;;22.45;10.40;;;;;;;3.46;100.00;101743.61;1745535;82;21143;-66
2023/01/22 06:11:26;;;;;;;21.80;9.88;;;;;;;3.42;100.00;101745.70;1814974;79;21087;-65
2023/01/22 06:13:55;;;;;;;20.15;9.75;;;;;;;3.39;100.00;101743.22;1814803;79;21111;-65
2023/01/22 06:16:25;;;;;;;21.75;10.55;;;;;;;3.38;100.00;101749.63;1814762;79;21107;-65
2023/01/22 06:19:05;;;;;;;20.17;9.85;;;;;;;3.34;100.00;101755.39;1744774;82;21118;-66
2023/01/22 06:21:45;;;;;;;23.70;10.48;;;;;;;3.30;100.00;101767.45;1813066;79;21201;-67
2023/01/22 06:24:14;;;;;;;22.80;11.12;;;;;;;3.25;100.00;101777.28;1814778;79;21523;-67
2023/01/22 06:26:43;;;;;;;20.72;10.72;;;;;;;3.24;100.00;101785.48;1815053;79;21596;-64
2023/01/22 06:29:13;;;;;;;24.63;10.53;;;;;;;3.22;100.00;101788.31;1745587;82;21174;-65
2023/01/22 06:31:43;;;;;;;18.75;9.70;;;;;;;3.22;100.00;101791.02;1814946;79;21111;-65
2023/01/22 06:34:15;;;;;;;22.37;9.40;;;;;;;3.24;100.00;101793.62;1814830;79;21107;-66
2023/01/22 06:36:46;;;;;;;21.07;9.98;;;;;;;3.25;100.00;101806.18;1745576;82;21123;-67
2023/01/22 06:39:16;;;;;;;21.27;10.25;;;;;;;3.23;100.00;101798.66;1776384;81;21087;-66
2023/01/22 06:41:47;;;;;;;22.87;10.32;;;;;;;3.21;100.00;101802.84;1744989;82;21154;-66
2023/01/22 06:44:17;;;;;;;19.75;9.25;;;;;;;3.21;100.00;101797.91;1815176;79;21087;-66
2023/01/22 06:46:47;;;;;;;24.90;10.72;;;;;;;3.20;100.00;101802.47;1745686;82;21554;-66
2023/01/22 06:49:18;;;;;;;22.10;10.60;;;;;;;3.19;100.00;101804.80;1811128;79;21091;-67
2023/01/22 06:51:46;;;;;;;20.77;10.10;;;;;;;3.16;100.00;101804.54;1718720;83;21511;-67
2023/01/22 06:54:16;;;;;;;21.73;10.78;;;;;;;3.15;100.00;101805.52;1799105;80;21144;-66
2023/01/22 06:56:46;;;;;;;22.40;10.98;;;;;;;3.13;100.00;101809.32;1718646;83;21135;-67
2023/01/22 06:59:14;;;;;;;21.33;10.32;;;;;;;3.09;100.00;101802.41;1798958;80;21088;-67
2023/01/22 07:01:44;;;;;;;24.20;11.73;;;;;;;3.08;100.00;101803.39;1718425;83;21108;-66
2023/01/22 07:04:14;;;;;;;22.98;10.88;;;;;;;3.07;100.00;101807.08;1798976;80;21084;-66
2023/01/22 07:06:45;;;;;;;21.35;10.88;;;;;;;3.06;100.00;101813.47;1718504;83;21507;-66
2023/01/22 07:09:15;;;;;;;24.70;11.03;;;;;;;3.06;100.00;101808.92;1798913;79;21076;-67
2023/01/22 07:11:44;;;;;;;27.60;11.73;;;;;;;3.09;100.00;101817.30;1798835;80;21178;-65
2023/01/22 07:14:13;;;;;;;26.65;11.63;;;;;;;3.08;100.00;101823.70;1799044;80;21100;-68
2023/01/22 07:16:43;;;;;;;25.17;11.60;;;;;;;3.10;100.00;101817.68;1718613;83;21131;-66
2023/01/22 07:19:14;;;;;;;24.15;11.60;;;;;;;3.14;100.00;101820.53;1798801;80;21190;-66
2023/01/22 07:21:43;;;;;;;25.25;12.13;;;;;;;3.15;100.00;101813.64;1799071;80;21487;-66
2023/01/22 07:24:14;;;;;;;27.65;13.15;;;;;;;3.16;100.00;101822.63;1718458;83;21586;-66
2023/01/22 07:26:43;;;;;;;27.37;12.65;;;;;;;3.15;100.00;101821.77;1798964;80;21116;-66
2023/01/22 07:29:12;;;;;;;24.65;12.05;;;;;;;3.15;100.00;101819.55;1798816;80;21119;-68
2023/01/22 07:31:42;;;;;;;29.23;11.90;;;;;;;3.13;100.00;101821.02;1799033;80;21118;-65
2023/01/22 07:34:11;;;;;;;27.20;12.58;;;;;;;3.11;100.00;101816.70;1798770;80;21115;-66
2023/01/22 07:36:40;;;;;;;25.05;11.05;;;;;;;3.10;100.00;101821.73;1799093;80;21111;-66
2023/01/22 07:39:08;;;;;;;24.00;10.78;;;;;;;3.10;100.00;101819.03;1718454;83;21128;-65
2023/01/22 07:41:37;;;;;;;26.57;11.90;;;;;;;3.11;100.00;101824.33;1798863;80;21489;-66
2023/01/22 07:44:09;;;;;;;27.75;12.37;;;;;;;3.13;100.00;101828.28;1798379;80;21151;-67
2023/01/22 07:46:39;;;;;;;30.85;14.28;;;;;;;3.13;100.00;101828.28;1733602;82;21190;-67
2023/01/22 07:49:09;;;;;;;34.38;16.00;;;;;;;3.14;100.00;101826.81;1733537;82;21155;-68
2023/01/22 07:51:38;;;;;;;26.10;11.20;;;;;;;3.15;100.00;101831.73;1712262;84;21126;-64
2023/01/22 07:54:06;;;;;;;26.23;11.45;;;;;;;3.13;100.00;101830.50;1712348;83;21170;-65
2023/01/22 07:56:36;;;;;;;21.90;10.65;;;;;;;3.10;100.00;101833.44;1712216;84;21544;-66
2023/01/22 07:59:07;;;;;;;26.17;11.55;;;;;;;3.10;100.00;101840.70;1712254;84;21127;-68
2023/01/22 08:01:36;;;;;;;27.87;11.48;;;;;;;3.07;100.00;101840.44;1712222;84;21127;-65
2023/01/22 08:04:06;;;;;;;24.18;11.25;;;;;;;3.08;100.00;101840.81;1725777;80;21150;-67
2023/01/22 08:06:36;;;;;;;30.68;12.25;;;;;;;3.08;100.00;101835.89;1713718;84;21111;-66
2023/01/22 08:09:06;;;;;;;28.73;12.05;;;;;;;3.05;100.00;101836.98;1780021;80;21146;-67
2023/01/22 08:11:35;;;;;;;25.23;11.53;;;;;;;3.08;100.00;101838.10;1713512;84;21170;-66
2023/01/22 08:14:04;;;;;;;27.17;11.08;;;;;;;3.11;100.00;101836.52;1779961;80;21530;-66
2023/01/22 08:16:34;;;;;;;27.22;12.20;;;;;;;3.09;100.00;101837.61;1779926;80;21201;-67
2023/01/22 08:19:03;;;;;;;26.35;11.90;;;;;;;3.09;100.00;101845.73;1780000;80;21110;-66
2023/01/22 08:21:33;;;;;;;27.40;12.20;;;;;;;3.10;100.00;101848.82;1779948;80;21478;-68
2023/01/22 08:24:04;;;;;;;28.80;13.55;;;;;;;3.11;100.00;101852.77;1713606;84;21631;-66
2023/01/22 08:26:33;;;;;;;28.95;12.88;;;;;;;3.12;100.00;101853.63;1779949;80;21528;-66
2023/01/22 08:29:01;;;;;;;28.47;12.75;;;;;;;3.14;100.00;101862.51;1713777;84;22038;-66
2023/01/22 08:31:33;;;;;;;29.55;13.25;;;;;;;3.14;100.00;101867.44;1779880;80;21150;-64
2023/01/22 08:34:02;;;;;;;31.62;13.32;;;;;;;3.16;100.00;101876.80;1713713;83;21122;-66
2023/01/22 08:36:31;;;;;;;34.18;13.65;;;;;;;3.18;100.00;101876.20;1780030;80;21150;-66
2023/01/22 08:39:03;;;;;;;28.57;12.30;;;;;;;3.21;100.00;101878.68;1713691;83;21549;-66
2023/01/22 08:41:32;;;;;;;30.43;13.35;;;;;;;3.21;100.00;101875.10;1780042;80;21127;-67
2023/01/22 08:44:01;;;;;;;32.98;13.35;;;;;;;3.21;100.00;101880.03;1713799;84;21127;-65
2023/01/22 08:46:34;;;;;;;29.65;13.28;;;;;;;3.24;100.00;101884.36;1779965;80;21651;-65
2023/01/22 08:49:04;;;;;;;31.33;14.07;;;;;;;3.24;100.00;101878.45;1713515;84;21182;-68
2023/01/22 08:51:36;;;;;;;26.57;12.15;;;;;;;3.26;100.00;101879.72;1796787;79;21259;-66
2023/01/22 08:54:07;;;;;;;34.65;14.30;;;;;;;3.22;99.97;101879.05;1786650;80;21115;-68
2023/01/22 08:56:39;;;;;;;36.83;15.70;;;;;;;3.16;99.85;101881.73;1781820;80;21170;-70
2023/01/22 08:59:08;;;;;;;36.53;15.10;;;;;;;3.15;99.98;101882.70;1784132;80;21154;-71
2023/01/22 09:01:36;;;;;;;32.20;14.15;;;;;;;3.19;100.00;101881.98;1781508;80;21135;-71
2023/01/22 09:04:06;;;;;;;34.85;13.93;;;;;;;3.20;100.00;101881.01;1767455;81;21125;-72
2023/01/22 09:06:36;;;;;;;32.83;15.20;;;;;;;3.21;100.00;101880.03;1767259;80;21124;-71
2023/01/22 09:09:05;;;;;;;36.15;14.35;;;;;;;3.22;100.00;101889.89;1767185;81;21124;-71
2023/01/22 09:11:36;;;;;;;37.58;15.28;;;;;;;3.21;100.00;101885.45;1782083;80;21096;-71
2023/01/22 09:14:07;;;;;;;36.73;15.05;;;;;;;3.18;100.00;101887.03;1788016;80;21115;-72
2023/01/22 09:16:35;;;;;;;33.50;14.10;;;;;;;3.19;100.00;101886.05;1788297;79;21072;-71
2023/01/22 09:19:04;;;;;;;32.33;14.58;;;;;;;3.23;100.00;101890.27;1788149;80;21143;-73
2023/01/22 09:21:36;;;;;;;36.20;14.98;;;;;;;3.22;100.00;101897.14;1788077;80;21159;-71
2023/01/22 09:24:05;;;;;;;34.95;14.80;;;;;;;3.21;100.00;101907.61;1788445;80;21099;-70
2023/01/22 09:26:35;;;;;;;33.05;14.35;;;;;;;3.22;100.00;101902.08;1787911;80;21158;-72
2023/01/22 09:29:04;;;;;;;34.08;15.10;;;;;;;3.26;100.00;101900.91;1783870;80;21168;-68
2023/01/22 09:31:34;;;;;;;35.15;14.50;;;;;;;3.31;100.00;101897.36;1783420;80;21150;-72
2023/01/22 09:34:03;;;;;;;34.43;15.65;;;;;;;3.32;100.00;101898.23;1783356;80;21130;-71
2023/01/22 09:36:32;;;;;;;34.73;14.98;;;;;;;3.31;100.00;101897.36;1716958;83;21127;-71
2023/01/22 09:39:01;;;;;;;36.38;15.13;;;;;;;3.34;100.00;101903.91;1716673;83;21123;-72
2023/01/22 09:41:40;;;;;;;32.85;13.72;;;;;;;3.34;100.00;101903.04;1783639;80;21170;-71
2023/01/22 09:44:39;;;;;;;33.67;13.93;;;;;;;3.34;100.00;101897.63;1783481;80;21588;-70
2023/01/22 09:47:12;;;;;;;33.40;14.95;;;;;;;3.33;100.00;101903.53;1783468;80;21167;-71
2023/01/22 09:50:04;;;;;;;32.03;13.35;;;;;;;3.34;100.00;101907.97;1753547;80;21155;-71
2023/01/22 09:52:35;;;;;;;31.97;14.35;;;;;;;3.38;100.00;101901.34;1777059;80;21152;-71
2023/01/22 09:55:13;;;;;;;33.25;15.28;;;;;;;3.40;100.00;101906.16;1767102;81;21234;-71
2023/01/22 09:57:47;;;;;;;33.65;13.62;;;;;;;3.44;100.00;101906.80;1767194;81;21140;-70
2023/01/22 10:00:38;;;;;;;33.80;15.20;;;;;;;3.45;100.00;101899.91;1767506;81;21133;-69
2023/01/22 10:03:15;;;;;;;35.58;15.38;;;;;;;3.45;100.00;101901.75;1767517;81;21205;-70
2023/01/22 10:05:52;;;;;;;36.85;15.80;;;;;;;3.47;100.00;101897.95;1767204;81;21162;-71
2023/01/22 13:13:35;;;;;;;22.73;9.25;;;;;;;2.25;100.00;101982.99;1677642;83;21426;-61
2023/01/22 13:16:22;;;;;;;21.00;8.90;;;;;;;2.27;100.00;101986.95;1677038;85;21286;-60
2023/01/22 13:18:55;;;;;;;22.80;9.23;;;;;;;2.26;100.00;101990.63;1687263;85;21099;-64
2023/01/22 13:21:30;;;;;;;18.20;7.83;;;;;;;2.26;100.00;101990.63;1681711;85;21145;-59
2023/01/22 13:24:05;;;;;;;21.30;8.03;;;;;;;2.29;100.00;101990.41;1673506;84;21132;-61
2023/01/22 13:26:36;;;;;;;19.27;9.08;;;;;;;2.30;100.00;101984.89;1672791;84;21164;-61
2023/01/22 13:29:27;;;;;;;19.60;8.43;;;;;;;2.33;100.00;101984.69;1654306;86;21716;-61
2023/01/22 13:32:00;;;;;;;14.33;6.65;;;;;;;2.36;100.00;101987.17;1670527;84;21580;-61
2023/01/22 13:34:29;;;;;;;17.15;7.20;;;;;;;2.39;100.00;101990.16;1677026;84;21113;-62
2023/01/22 13:36:59;;;;;;;15.40;7.42;;;;;;;2.43;100.00;101990.33;1677120;85;21177;-61
2023/01/22 13:39:32;;;;;;;12.60;6.22;;;;;;;2.45;100.00;101991.08;1677287;85;21619;-61
2023/01/22 13:42:03;;;;;;;13.75;6.45;;;;;;;2.46;100.00;101994.17;1658157;85;21116;-61
2023/01/22 13:44:38;;;;;;;14.98;6.45;;;;;;;2.43;100.00;101991.67;1677197;84;21157;-60
2023/01/22 13:47:10;;;;;;;13.35;6.87;;;;;;;2.44;100.00;101990.70;1677281;84;21200;-60
2023/01/22 13:49:42;;;;;;;14.80;6.75;;;;;;;2.44;100.00;102000.17;1673283;85;21137;-60
2023/01/22 13:52:15;;;;;;;13.50;6.10;;;;;;;2.45;99.89;102008.66;1673796;86;21184;-60
2023/01/22 13:54:55;;;;;;;14.93;5.85;;;;;;;2.40;99.52;102006.28;1673954;86;21172;-59
2023/01/22 13:57:25;;;;;;;15.30;6.30;;;;;;;2.35;99.36;102007.57;1670615;85;21199;-61
2023/01/22 13:59:59;;;;;;;12.25;6.25;;;;;;;2.31;99.14;102008.75;1672979;86;21144;-60
2023/01/22 14:02:33;;;;;;;17.02;7.15;;;;;;;2.28;99.21;102013.88;1566674;90;21189;-60
2023/01/22 14:05:04;;;;;;;14.90;7.62;;;;;;;2.29;99.28;102016.11;1600913;89;21182;-60
2023/01/22 14:07:36;;;;;;;11.75;6.25;;;;;;;2.28;99.08;102017.08;1567811;90;21180;-60
2023/01/22 14:10:21;;;;;;;13.35;7.10;;;;;;;2.25;99.04;102018.15;1601055;88;21331;-62
2023/01/22 14:13:05;;;;;;;12.80;6.55;;;;;;;2.26;99.15;102023.08;1595628;89;21205;-63
2023/01/22 14:15:35;;;;;;;18.50;7.65;;;;;;;2.27;99.14;102028.86;1591435;90;21200;-60
2023/01/22 14:18:16;;;;;;;17.25;7.80;;;;;;;2.26;99.13;102032.05;1591583;90;21215;-60
2023/01/22 14:20:46;;;;;;;16.73;7.90;;;;;;;2.27;99.17;102035.14;1639978;85;21171;-60
2023/01/22 14:23:15;;;;;;;21.35;9.00;;;;;;;2.26;99.05;102035.25;1681225;85;21137;-59
2023/01/22 14:25:50;;;;;;;17.52;8.58;;;;;;;2.26;99.07;102039.30;1679679;84;21185;-61
2023/01/22 14:28:20;;;;;;;20.23;9.83;;;;;;;2.23;98.96;102039.89;1679666;85;21592;-60
2023/01/22 14:30:49;;;;;;;18.85;8.80;;;;;;;2.20;98.76;102049.56;1679640;84;21158;-60
2023/01/22 14:33:23;;;;;;;18.37;9.00;;;;;;;2.15;98.58;102046.30;1680002;84;21137;-58
2023/01/22 14:35:53;;;;;;;23.57;9.15;;;;;;;2.13;98.77;102057.70;1679919;85;21188;-60
2023/01/22 14:38:22;;;;;;;19.30;9.58;;;;;;;2.12;98.77;102059.16;1679658;84;21193;-61
2023/01/22 14:40:51;;;;;;;19.90;9.60;;;;;;;2.11;98.88;102060.13;1679672;84;21199;-63
2023/01/22 14:43:22;;;;;;;18.45;9.00;;;;;;;2.13;98.91;102060.41;1667885;85;21164;-63
2023/01/22 14:45:51;;;;;;;17.90;8.60;;;;;;;2.12;98.81;102059.16;1679630;85;21142;-60
2023/01/22 14:48:21;;;;;;;18.62;9.80;;;;;;;2.08;98.72;102057.63;1679601;85;21141;-61
2023/01/22 14:50:51;;;;;;;22.90;9.80;;;;;;;2.06;98.75;102058.22;1679652;84;21160;-61
2023/01/22 14:53:21;;;;;;;19.55;9.45;;;;;;;2.03;98.80;102061.13;1653812;85;21141;-59
2023/01/22 14:55:51;;;;;;;19.42;9.20;;;;;;;2.04;98.94;102069.14;1663463;84;21253;-58
2023/01/22 14:58:22;;;;;;;24.75;10.80;;;;;;;2.06;99.01;102064.49;1675561;85;21223;-59
2023/01/22 15:00:51;;;;;;;24.75;12.58;;;;;;;2.01;98.61;102063.94;1675876;85;21178;-57
2023/01/22 15:03:20;;;;;;;28.52;12.65;;;;;;;1.96;98.60;102062.50;1675819;85;21179;-59
2023/01/22 15:05:51;;;;;;;28.65;12.73;;;;;;;1.94;98.62;102065.76;1623460;88;21166;-59
2023/01/22 15:08:21;;;;;;;26.20;12.30;;;;;;;1.90;98.54;102065.09;1621721;88;21202;-59
2023/01/22 15:10:51;;;;;;;21.93;9.70;;;;;;;1.89;98.60;102076.88;1621690;88;21126;-58
2023/01/22 15:13:21;;;;;;;23.80;11.35;;;;;;;1.86;98.57;102067.13;1621758;88;21623;-60
2023/01/22 15:15:51;;;;;;;24.90;12.05;;;;;;;1.87;98.63;102068.00;1621982;88;21142;-60
2023/01/22 15:18:20;;;;;;;22.37;10.53;;;;;;;1.86;98.57;102074.37;1621745;88;21146;-60
2023/01/22 15:20:50;;;;;;;22.05;10.25;;;;;;;1.82;98.51;102068.78;1621667;87;21657;-59
2023/01/22 15:23:19;;;;;;;24.20;10.68;;;;;;;1.83;98.64;102078.63;1634938;85;21198;-60
2023/01/22 15:25:59;;;;;;;26.12;11.30;;;;;;;1.82;98.61;102074.19;1683680;85;21175;-60
2023/01/22 15:28:29;;;;;;;23.07;9.83;;;;;;;1.81;98.71;102079.21;1680100;84;21131;-59
2023/01/22 15:31:06;;;;;;;26.73;10.85;;;;;;;1.79;98.64;102082.50;1683590;85;21178;-60
2023/01/22 15:33:36;;;;;;;23.98;9.53;;;;;;;1.77;98.69;102077.67;1683692;85;21186;-59
2023/01/22 15:36:07;;;;;;;22.58;10.03;;;;;;;1.73;98.63;102082.41;1683629;85;21174;-60
2023/01/22 15:38:37;;;;;;;21.52;9.88;;;;;;;1.69;98.63;102088.12;1683980;85;21254;-60
2023/01/22 15:41:26;;;;;;;24.15;10.58;;;;;;;1.70;98.88;102085.80;1683929;85;21174;-59
2023/01/22 15:43:59;;;;;;;32.73;14.05;;;;;;;1.67;98.84;102082.81;1683871;85;21232;-60
2023/01/22 15:46:31;;;;;;;22.37;9.85;;;;;;;1.68;98.96;102091.78;1683653;85;21214;-61
2023/01/22 15:49:01;;;;;;;23.75;10.80;;;;;;;1.70;99.06;102092.55;1683689;85;21127;-59
2023/01/22 15:51:31;;;;;;;23.80;11.08;;;;;;;1.66;98.93;102088.31;1683864;85;21159;-59
2023/01/22 15:54:02;;;;;;;28.92;12.15;;;;;;;1.68;99.12;102089.08;1683658;85;21151;-59
2023/01/22 15:56:35;;;;;;;30.70;12.90;;;;;;;1.69;99.05;102090.33;1683835;85;21582;-59
2023/01/22 15:59:04;;;;;;;23.35;10.23;;;;;;;1.68;98.94;102091.78;1683674;85;21158;-60
2023/01/22 16:01:34;;;;;;;23.27;11.38;;;;;;;1.66;98.97;102092.37;1683686;85;21151;-59
2023/01/22 16:04:05;;;;;;;25.95;10.88;;;;;;;1.66;98.99;102089.18;1683743;85;21159;-60
2023/01/22 16:06:35;;;;;;;21.70;10.40;;;;;;;1.67;99.04;102095.45;1683630;84;21644;-60
2023/01/22 16:09:07;;;;;;;24.52;11.25;;;;;;;1.69;99.10;102105.67;1683723;84;21616;-60
2023/01/22 16:11:36;;;;;;;26.90;11.70;;;;;;;1.70;99.05;102096.61;1683558;85;21217;-60
2023/01/22 16:14:05;;;;;;;25.27;10.95;;;;;;;1.68;98.94;102099.89;1673307;84;21147;-60
2023/01/22 16:16:36;;;;;;;22.35;10.48;;;;;;;1.63;98.64;102102.89;1673891;86;21175;-60
2023/01/22 16:19:07;;;;;;;28.77;12.18;;;;;;;1.57;98.58;102101.45;1673674;85;21275;-60
2023/01/22 16:21:36;;;;;;;27.60;10.85;;;;;;;1.56;98.54;102103.77;1653247;86;21242;-60
2023/01/22 16:24:06;;;;;;;23.83;11.05;;;;;;;1.54;98.65;102101.64;1673724;86;21223;-60
2023/01/22 16:26:37;;;;;;;26.23;11.95;;;;;;;1.56;98.79;102105.12;1673743;86;21155;-60
2023/01/22 16:29:07;;;;;;;26.37;11.05;;;;;;;1.56;98.77;102101.06;1673919;84;21805;-60
2023/01/22 16:31:38;;;;;;;38.45;15.45;;;;;;;1.55;98.80;102110.13;1673883;86;21127;-60
2023/01/22 16:34:14;;;;;;;47.70;19.07;;;;;;;1.56;98.80;102107.81;1673645;86;21646;-60
2023/01/22 16:36:44;;;;;;;34.15;14.55;;;;;;;1.58;98.86;102110.42;1673834;85;21206;-60
2023/01/22 16:39:20;;;;;;;28.62;11.83;;;;;;;1.62;98.80;102113.80;1673809;86;21543;-59
2023/01/22 16:41:50;;;;;;;32.25;13.53;;;;;;;1.57;98.67;102116.31;1673659;86;21183;-61
2023/01/22 16:44:26;;;;;;;30.10;12.63;;;;;;;1.55;98.65;102118.23;1673626;86;21191;-61
2023/01/22 16:46:58;;;;;;;29.45;12.47;;;;;;;1.53;98.64;102117.95;1673877;86;21163;-60
2023/01/22 16:49:32;;;;;;;31.95;14.18;;;;;;;1.46;98.36;102113.91;1673678;84;21116;-59
2023/01/22 16:52:05;;;;;;;28.90;12.68;;;;;;;1.40;98.50;102112.45;1673864;86;21144;-61
2023/01/22 16:54:37;;;;;;;27.42;12.00;;;;;;;1.39;98.54;102118.83;1671819;85;21255;-61
2023/01/22 16:57:08;;;;;;;38.53;17.50;;;;;;;1.39;98.55;102117.95;1673654;86;21227;-61
2023/01/22 16:59:41;;;;;;;33.88;14.40;;;;;;;1.39;98.54;102116.12;1673923;86;21152;-60
2023/01/22 17:02:14;;;;;;;25.68;10.90;;;;;;;1.37;98.40;102126.16;1673690;86;21562;-61
2023/01/22 17:04:45;;;;;;;24.75;10.58;;;;;;;1.34;98.36;102126.34;1673633;85;21187;-61
2023/01/22 17:07:14;;;;;;;24.70;10.50;;;;;;;1.34;98.35;102137.15;1673657;86;21219;-60
2023/01/22 17:09:46;;;;;;;19.87;8.93;;;;;;;1.27;98.21;102142.52;1671402;86;21163;-60
2023/01/22 17:12:15;;;;;;;24.37;10.15;;;;;;;1.17;98.09;102145.39;1674807;85;21151;-61
2023/01/22 17:14:51;;;;;;;22.95;10.50;;;;;;;1.07;98.02;102141.52;1631756;86;21170;-61
2023/01/22 17:17:20;;;;;;;25.15;10.75;;;;;;;0.96;98.05;102140.83;1630926;88;21222;-61
2023/01/22 17:19:50;;;;;;;23.65;10.68;;;;;;;0.92;98.34;102134.75;1630957;88;21154;-60
2023/01/22 17:22:22;;;;;;;21.68;10.30;;;;;;;0.91;98.44;102143.80;1630950;87;21658;-58
2023/01/22 17:24:52;;;;;;;24.63;11.25;;;;;;;0.91;98.58;102140.23;1630989;88;21228;-60
2023/01/22 17:27:24;;;;;;;21.87;9.45;;;;;;;0.95;98.86;102148.06;1630811;86;21142;-59
2023/01/22 17:29:54;;;;;;;22.45;9.08;;;;;;;1.01;98.88;102139.20;1630836;88;21182;-59
2023/01/22 17:32:25;;;;;;;24.27;10.00;;;;;;;1.05;98.93;102150.20;1645593;84;21143;-61
2023/01/22 17:34:54;;;;;;;35.03;14.73;;;;;;;1.06;98.83;102158.68;1683801;84;21599;-59
2023/01/22 17:37:25;;;;;;;21.30;9.48;;;;;;;1.09;98.91;102165.25;1683728;84;22144;-60
2023/01/22 17:39:54;;;;;;;17.92;9.10;;;;;;;1.11;98.74;102160.62;1683853;84;21155;-60
2023/01/22 17:42:23;;;;;;;19.77;8.75;;;;;;;1.09;98.46;102169.30;1683648;85;21191;-61
2023/01/22 17:44:52;;;;;;;21.77;9.53;;;;;;;1.04;98.28;102182.20;1683632;85;21191;-61
2023/01/22 17:47:21;;;;;;;20.97;9.38;;;;;;;1.02;98.34;102173.33;1683828;85;21202;-60
2023/01/22 17:49:51;;;;;;;21.65;9.25;;;;;;;1.05;98.46;102168.61;1662563;85;21159;-60
2023/01/22 17:52:22;;;;;;;20.72;9.18;;;;;;;1.07;98.35;102173.92;1683607;85;21218;-59
2023/01/22 17:54:54;;;;;;;18.25;8.60;;;;;;;1.05;98.32;102171.80;1683592;84;21191;-60
2023/01/22 17:57:24;;;;;;;21.15;9.48;;;;;;;1.06;98.35;102178.92;1683813;85;21190;-58
2023/01/22 17:59:55;;;;;;;22.10;9.63;;;;;;;1.02;98.17;102175.55;1662460;85;21198;-60
2023/01/22 18:02:25;;;;;;;20.10;8.80;;;;;;;1.00;98.22;102181.52;1683807;85;21146;-59
2023/01/22 18:04:55;;;;;;;19.57;8.75;;;;;;;1.00;98.34;102184.22;1683814;85;21638;-61
2023/01/22 18:07:26;;;;;;;19.32;8.85;;;;;;;1.00;98.36;102183.34;1683746;85;21175;-61
2023/01/22 18:09:55;;;;;;;20.68;9.68;;;;;;;0.94;98.14;102187.28;1684118;84;21239;-59
2023/01/22 18:12:24;;;;;;;20.50;8.98;;;;;;;0.91;98.26;102178.89;1683678;84;21210;-62
2023/01/22 18:14:54;;;;;;;23.92;10.50;;;;;;;0.92;98.31;102183.33;1684183;85;21234;-60
2023/01/22 18:17:24;;;;;;;23.12;9.43;;;;;;;0.92;98.34;102182.45;1683967;85;21262;-59
2023/01/22 18:19:53;;;;;;;20.55;9.03;;;;;;;0.94;98.43;102188.16;1684031;85;21151;-61
2023/01/22 18:22:23;;;;;;;26.90;11.57;;;;;;;0.95;98.39;102185.84;1683930;85;21637;-61
2023/01/22 18:24:52;;;;;;;20.25;8.55;;;;;;;0.93;98.39;102185.55;1683792;85;21182;-59